createdAt,value
2018-02-12T00:01:02.784Z,4.96
2018-02-12T00:03:30.259Z,4.97
2018-02-12T00:05:57.748Z,4.93
2018-02-12T00:08:25.264Z,4.92
2018-02-12T00:10:52.798Z,4.88
2018-02-12T00:13:20.290Z,4.91
2018-02-12T00:15:47.870Z,4.97
2018-02-12T00:18:15.323Z,5.00
2018-02-12T00:20:42.780Z,5.04
2018-02-12T00:23:10.253Z,5.03
2018-02-12T00:25:38.215Z,5.12
2018-02-12T00:28:06.951Z,5.16
2018-02-12T00:30:34.467Z,5.18
2018-02-12T00:33:02.070Z,5.20
2018-02-12T00:35:29.115Z,5.19
2018-02-12T00:37:56.163Z,5.12
2018-02-12T00:40:23.182Z,5.08
2018-02-12T00:42:50.168Z,5.08
2018-02-12T00:45:17.199Z,5.04
2018-02-12T00:47:44.242Z,5.00
2018-02-12T00:50:11.231Z,4.99
2018-02-12T00:52:38.244Z,5.03
2018-02-12T00:55:05.326Z,5.08
2018-02-12T00:57:32.346Z,5.09
2018-02-12T00:59:59.413Z,5.16
2018-02-12T01:02:26.430Z,5.15
2018-02-12T01:04:53.503Z,5.17
2018-02-12T01:07:20.543Z,5.25
2018-02-12T01:09:47.597Z,5.26
2018-02-12T01:12:14.651Z,5.22
2018-02-12T01:14:41.653Z,5.23
2018-02-12T01:17:08.725Z,5.21
2018-02-12T01:19:35.721Z,5.20
2018-02-12T01:22:02.855Z,5.16
2018-02-12T01:24:30.174Z,5.12
2018-02-12T01:26:57.246Z,5.10
2018-02-12T01:29:24.278Z,5.06
2018-02-12T01:31:51.274Z,5.08
2018-02-12T01:34:18.750Z,5.08
2018-02-12T01:36:45.771Z,5.07
2018-02-12T01:39:12.845Z,5.02
2018-02-12T01:41:39.890Z,5.04
2018-02-12T01:44:06.941Z,5.03
2018-02-12T01:46:33.960Z,5.10
2018-02-12T01:49:01.036Z,5.13
2018-02-12T01:51:28.072Z,5.16
2018-02-12T01:53:55.122Z,5.16
2018-02-12T01:56:22.173Z,5.16
2018-02-12T01:58:49.256Z,5.19
2018-02-12T02:01:16.303Z,5.21
2018-02-12T02:03:43.362Z,5.23
2018-02-12T02:06:10.366Z,5.20
2018-02-12T02:08:37.396Z,5.21
2018-02-12T02:11:04.389Z,5.24
2018-02-12T02:13:31.466Z,5.23
2018-02-12T02:15:58.515Z,5.27
2018-02-12T02:18:25.528Z,5.24
2018-02-12T02:20:52.562Z,5.26
2018-02-12T02:23:19.569Z,5.28
2018-02-12T02:25:46.792Z,5.25
2018-02-12T02:28:13.797Z,5.26
2018-02-12T02:30:40.830Z,5.25
2018-02-12T02:33:07.813Z,5.25
2018-02-12T02:35:34.946Z,5.26
2018-02-12T02:38:01.945Z,5.27
2018-02-12T02:40:29.564Z,5.20
2018-02-12T02:42:56.562Z,5.10
2018-02-12T02:45:23.639Z,5.06
2018-02-12T02:47:50.691Z,4.95
2018-02-12T02:50:18.218Z,4.93
2018-02-12T02:52:45.929Z,4.93
2018-02-12T02:55:12.957Z,4.87
2018-02-12T02:57:39.947Z,4.92
2018-02-12T03:00:07.764Z,4.95
2018-02-12T03:02:34.810Z,5.00
2018-02-12T03:05:01.838Z,5.02
2018-02-12T03:07:28.845Z,5.05
2018-02-12T03:09:55.806Z,5.06
2018-02-12T03:12:22.881Z,5.03
2018-02-12T03:14:49.878Z,5.07
2018-02-12T03:17:16.929Z,5.03
2018-02-12T03:19:44.057Z,4.94
2018-02-12T03:22:11.188Z,4.84
2018-02-12T03:24:38.666Z,4.89
2018-02-12T03:27:06.073Z,4.94
2018-02-12T03:29:33.534Z,4.93
2018-02-12T03:32:01.016Z,4.95
2018-02-12T03:34:28.528Z,4.90
2018-02-12T03:36:55.999Z,4.86
2018-02-12T03:39:23.574Z,4.85
2018-02-12T03:41:51.033Z,4.86
2018-02-12T03:44:18.074Z,4.73
2018-02-12T03:46:45.085Z,4.57
2018-02-12T03:49:12.137Z,4.39
2018-02-12T03:51:39.192Z,4.29
2018-02-12T03:54:06.213Z,4.28
2018-02-12T03:56:33.332Z,4.29
2018-02-12T03:59:00.473Z,4.26
2018-02-12T04:01:27.503Z,4.26
2018-02-12T04:03:54.485Z,4.31
2018-02-12T04:06:21.552Z,4.39
2018-02-12T04:08:48.557Z,4.43
2018-02-12T04:11:15.596Z,4.40
2018-02-12T04:13:42.681Z,4.41
2018-02-12T04:16:09.721Z,4.45
2018-02-12T04:18:36.789Z,4.49
2018-02-12T04:21:03.855Z,4.56
2018-02-12T04:23:30.819Z,4.54
2018-02-12T04:25:58.046Z,4.46
2018-02-12T04:28:25.082Z,4.45
2018-02-12T04:30:52.032Z,4.52
2018-02-12T04:33:19.126Z,4.54
2018-02-12T04:35:46.136Z,4.53
2018-02-12T04:38:13.144Z,4.60
2018-02-12T04:40:40.731Z,4.61
2018-02-12T04:43:08.240Z,4.59
2018-02-12T04:45:35.641Z,4.62
2018-02-12T04:48:03.116Z,4.58
2018-02-12T04:50:30.544Z,4.64
2018-02-12T04:52:58.022Z,4.67
2018-02-12T04:55:25.576Z,4.41
2018-02-12T04:57:53.034Z,4.20
2018-02-12T05:00:20.125Z,4.08
2018-02-12T05:02:47.198Z,3.97
2018-02-12T05:05:14.167Z,3.75
2018-02-12T05:07:41.186Z,3.67
2018-02-12T05:10:08.238Z,3.64
2018-02-12T05:12:35.252Z,3.57
2018-02-12T05:15:02.956Z,3.42
2018-02-12T05:17:29.992Z,3.34
2018-02-12T05:19:57.219Z,3.34
2018-02-12T05:22:24.182Z,3.17
2018-02-12T05:24:51.185Z,3.10
2018-02-12T05:27:18.239Z,3.06
2018-02-12T05:29:45.263Z,3.09
2018-02-12T05:32:12.230Z,3.11
2018-02-12T05:34:39.261Z,3.15
2018-02-12T05:37:06.238Z,3.09
2018-02-12T05:39:33.243Z,3.13
2018-02-12T05:42:00.224Z,3.16
2018-02-12T05:44:27.167Z,3.17
2018-02-12T05:46:54.108Z,3.17
2018-02-12T05:49:21.182Z,2.97
2018-02-12T05:51:48.227Z,2.74
2018-02-12T05:54:15.272Z,2.84
2018-02-12T05:56:42.321Z,2.96
2018-02-12T05:59:09.497Z,3.10
2018-02-12T06:01:36.515Z,3.16
2018-02-12T06:04:03.534Z,3.09
2018-02-12T06:06:30.615Z,3.06
2018-02-12T06:08:57.660Z,3.18
2018-02-12T06:11:24.686Z,3.05
2018-02-12T06:13:51.731Z,2.94
2018-02-12T06:16:18.832Z,3.02
2018-02-12T06:18:45.946Z,3.12
2018-02-12T06:21:13.125Z,3.12
2018-02-12T06:23:40.135Z,3.14
2018-02-12T06:26:07.152Z,3.13
2018-02-12T06:28:34.193Z,3.07
2018-02-12T06:31:01.150Z,3.10
2018-02-12T06:33:28.212Z,3.01
2018-02-12T06:35:55.244Z,3.04
2018-02-12T06:38:22.296Z,3.05
2018-02-12T06:40:49.307Z,3.03
2018-02-12T06:43:16.277Z,3.06
2018-02-12T06:45:43.294Z,3.11
2018-02-12T06:48:10.368Z,3.13
2018-02-12T06:50:37.388Z,3.17
2018-02-12T06:53:04.472Z,3.25
2018-02-12T06:55:31.789Z,3.32
2018-02-12T06:57:58.825Z,3.34
2018-02-12T07:00:26.565Z,3.36
2018-02-12T07:02:53.661Z,3.39
2018-02-12T07:05:20.809Z,3.47
2018-02-12T07:07:47.850Z,3.52
2018-02-12T07:10:14.882Z,3.53
2018-02-12T07:12:41.864Z,3.57
2018-02-12T07:15:08.941Z,3.53
2018-02-12T07:17:35.890Z,3.58
2018-02-12T07:20:02.944Z,3.64
2018-02-12T07:22:29.987Z,3.55
2018-02-12T07:24:56.997Z,3.36
2018-02-12T07:27:24.039Z,3.48
2018-02-12T07:29:51.280Z,3.55
2018-02-12T07:32:18.293Z,3.86
2018-02-12T07:34:45.292Z,4.11
2018-02-12T07:37:12.305Z,4.43
2018-02-12T07:39:39.417Z,4.68
2018-02-12T07:42:06.421Z,4.88
2018-02-12T07:44:33.574Z,5.33
2018-02-12T07:47:00.612Z,7.22
2018-02-12T07:49:28.276Z,7.89
2018-02-12T07:51:55.736Z,6.57
2018-02-12T07:54:23.318Z,5.87
2018-02-12T07:56:50.787Z,5.63
2018-02-12T07:59:17.849Z,5.60
2018-02-12T08:01:45.201Z,5.61
2018-02-12T08:04:12.210Z,5.68
2018-02-12T08:06:39.189Z,7.08
2018-02-12T08:09:06.636Z,7.04
2018-02-12T08:11:34.150Z,6.48
2018-02-12T08:14:01.515Z,5.90
2018-02-12T08:16:28.565Z,5.30
2018-02-12T08:18:55.594Z,4.96
2018-02-12T08:21:22.598Z,4.75
2018-02-12T08:23:49.641Z,4.77
2018-02-12T08:26:17.163Z,4.88
2018-02-12T08:28:44.317Z,4.97
2018-02-12T08:31:11.372Z,4.91
2018-02-12T08:33:38.373Z,4.87
2018-02-12T08:36:05.302Z,4.79
2018-02-12T08:38:32.367Z,4.72
2018-02-12T08:40:59.581Z,4.71
2018-02-12T08:43:26.606Z,4.91
2018-02-12T08:45:53.590Z,5.12
2018-02-12T08:48:20.698Z,5.22
2018-02-12T08:50:47.761Z,5.23
2018-02-12T08:53:14.802Z,5.24
2018-02-12T08:55:42.814Z,5.22
2018-02-12T08:58:09.825Z,5.15
2018-02-12T09:00:36.886Z,8.85
2018-02-12T09:03:03.849Z,12.64
2018-02-12T09:05:30.886Z,14.10
2018-02-12T09:07:58.104Z,14.89
2018-02-12T09:10:25.111Z,16.01
2018-02-12T09:12:52.168Z,16.69
2018-02-12T09:15:19.250Z,14.95
2018-02-12T09:17:46.258Z,11.87
2018-02-12T09:20:13.283Z,9.68
2018-02-12T09:22:40.391Z,8.00
2018-02-12T09:25:07.360Z,10.50
2018-02-12T09:27:34.374Z,12.92
2018-02-12T09:30:01.414Z,14.24
2018-02-12T09:32:28.442Z,15.99
2018-02-12T09:34:55.420Z,15.63
2018-02-12T09:37:22.465Z,16.08
2018-02-12T09:39:49.477Z,16.16
2018-02-12T09:42:16.517Z,16.59
2018-02-12T09:44:43.530Z,17.09
2018-02-12T09:47:10.568Z,16.98
2018-02-12T09:49:37.606Z,16.29
2018-02-12T09:52:04.675Z,16.77
2018-02-12T09:54:31.726Z,16.42
2018-02-12T09:56:58.756Z,16.30
2018-02-12T09:59:25.836Z,17.82
2018-02-12T10:01:52.820Z,18.28
2018-02-12T10:04:19.862Z,17.29
2018-02-12T10:06:46.926Z,16.64
2018-02-12T10:09:13.944Z,16.52
2018-02-12T10:11:41.034Z,17.29
2018-02-12T10:14:08.178Z,17.38
2018-02-12T10:16:35.175Z,17.44
2018-02-12T10:19:02.276Z,16.87
2018-02-12T10:21:29.324Z,17.24
2018-02-12T10:23:56.332Z,16.61
2018-02-12T10:26:23.335Z,15.08
2018-02-12T10:28:50.360Z,15.91
2018-02-12T10:31:17.415Z,15.59
2018-02-12T10:33:44.384Z,14.85
2018-02-12T10:36:11.402Z,16.41
2018-02-12T10:38:40.071Z,15.45
2018-02-12T10:41:07.292Z,15.29
2018-02-12T10:43:34.312Z,15.22
2018-02-12T10:46:01.337Z,15.18
2018-02-12T10:48:28.698Z,15.32
2018-02-12T10:50:55.955Z,12.61
2018-02-12T10:53:23.233Z,12.44
2018-02-12T10:55:50.260Z,10.39
2018-02-12T10:58:17.292Z,8.97
2018-02-12T11:00:44.304Z,8.58
2018-02-12T11:03:11.328Z,8.09
2018-02-12T11:05:38.332Z,8.31
2018-02-12T11:08:05.341Z,10.06
2018-02-12T11:10:32.416Z,10.05
2018-02-12T11:12:59.479Z,10.21
2018-02-12T11:15:26.636Z,10.02
2018-02-12T11:17:53.681Z,8.87
2018-02-12T11:20:20.753Z,8.73
2018-02-12T11:22:47.985Z,8.85
2018-02-12T11:25:15.044Z,9.55
2018-02-12T11:27:42.101Z,10.51
2018-02-12T11:30:09.124Z,10.39
2018-02-12T11:32:36.170Z,8.81
2018-02-12T11:35:03.143Z,8.22
2018-02-12T11:37:30.182Z,7.60
2018-02-12T11:39:57.180Z,7.32
2018-02-12T11:42:24.217Z,8.94
2018-02-12T11:44:51.306Z,12.26
2018-02-12T11:47:18.283Z,15.22
2018-02-12T11:49:45.312Z,15.10
2018-02-12T11:52:12.366Z,15.77
2018-02-12T11:54:39.458Z,16.55
2018-02-12T11:57:06.465Z,15.61
2018-02-12T11:59:33.514Z,15.09
2018-02-12T12:02:00.576Z,12.50
2018-02-12T12:04:27.607Z,14.14
2018-02-12T12:06:54.649Z,16.83
2018-02-12T12:09:21.638Z,17.06
2018-02-12T12:11:48.702Z,17.95
2018-02-12T12:14:15.706Z,17.90
2018-02-12T12:16:42.981Z,17.12
2018-02-12T12:19:10.105Z,17.98
2018-02-12T12:21:37.127Z,17.91
2018-02-12T12:24:04.147Z,16.82
2018-02-12T12:26:31.200Z,16.62
2018-02-12T12:28:58.233Z,17.08
2018-02-12T12:31:25.289Z,17.61
2018-02-12T12:33:52.409Z,17.60
2018-02-12T12:36:19.407Z,17.57
2018-02-12T12:38:46.375Z,18.83
2018-02-12T12:41:13.437Z,18.68
2018-02-12T12:43:40.444Z,17.63
2018-02-12T12:46:07.505Z,16.81
2018-02-12T12:48:34.880Z,16.59
2018-02-12T12:51:01.983Z,16.40
2018-02-12T12:53:28.995Z,12.06
2018-02-12T12:55:56.254Z,9.53
2018-02-12T12:58:23.359Z,8.58
2018-02-12T13:00:50.445Z,8.35
2018-02-12T13:03:17.471Z,10.06
2018-02-12T13:05:44.410Z,13.34
2018-02-12T13:08:11.458Z,15.59
2018-02-12T13:10:38.520Z,16.04
2018-02-12T13:13:05.754Z,16.78
2018-02-12T13:15:32.734Z,16.48
2018-02-12T13:17:59.833Z,17.13
2018-02-12T13:20:26.869Z,16.72
2018-02-12T13:22:54.018Z,16.20
2018-02-12T13:25:21.129Z,16.45
2018-02-12T13:27:48.190Z,16.87
2018-02-12T13:30:15.276Z,17.12
2018-02-12T13:32:42.265Z,17.28
2018-02-12T13:35:09.266Z,18.96
2018-02-12T13:37:36.248Z,15.17
2018-02-12T13:40:03.469Z,11.24
2018-02-12T13:42:30.476Z,9.61
2018-02-12T13:44:57.548Z,8.87
2018-02-12T13:47:24.601Z,8.70
2018-02-12T13:49:51.646Z,8.51
2018-02-12T13:52:18.672Z,8.20
2018-02-12T13:54:46.019Z,7.62
2018-02-12T13:57:13.034Z,7.46
2018-02-12T13:59:40.681Z,7.23
2018-02-12T14:02:07.716Z,7.09
2018-02-12T14:04:34.815Z,7.99
2018-02-12T14:07:01.803Z,9.50
2018-02-12T14:09:28.746Z,12.49
2018-02-12T14:11:55.779Z,14.39
2018-02-12T14:14:22.997Z,15.03
2018-02-12T14:16:50.078Z,16.57
2018-02-12T14:19:17.159Z,16.42
2018-02-12T14:21:44.207Z,17.01
2018-02-12T14:24:11.207Z,17.72
2018-02-12T14:26:38.229Z,17.84
2018-02-12T14:29:05.271Z,17.84
2018-02-12T14:31:32.264Z,18.48
2018-02-12T14:33:59.443Z,19.09
2018-02-12T14:36:26.420Z,18.55
2018-02-12T14:38:53.465Z,18.84
2018-02-12T14:41:20.521Z,19.41
2018-02-12T14:43:47.639Z,20.78
2018-02-12T14:46:14.723Z,20.83
2018-02-12T14:48:41.766Z,20.30
2018-02-12T14:51:08.877Z,20.10
2018-02-12T14:53:35.886Z,19.33
2018-02-12T14:56:03.110Z,17.74
2018-02-12T14:58:30.328Z,16.30
2018-02-12T15:00:57.320Z,15.80
2018-02-12T15:03:24.327Z,16.00
2018-02-12T15:05:51.363Z,17.33
2018-02-12T15:08:18.601Z,19.25
2018-02-12T15:10:45.593Z,20.43
2018-02-12T15:13:12.823Z,19.88
2018-02-12T15:15:40.074Z,15.49
2018-02-12T15:18:07.154Z,12.44
2018-02-12T15:20:34.225Z,9.73
2018-02-12T15:23:01.311Z,8.51
2018-02-12T15:25:28.316Z,7.89
2018-02-12T15:27:55.319Z,7.11
2018-02-12T15:30:22.316Z,6.61
2018-02-12T15:32:50.073Z,6.16
2018-02-12T15:35:17.268Z,6.06
2018-02-12T15:37:44.289Z,5.79
2018-02-12T15:40:11.356Z,5.60
2018-02-12T15:42:38.410Z,5.55
2018-02-12T15:45:05.467Z,5.58
2018-02-12T15:47:32.506Z,5.52
2018-02-12T15:49:59.566Z,5.54
2018-02-12T15:52:26.624Z,5.53
2018-02-12T15:54:53.633Z,5.46
2018-02-12T15:57:20.697Z,5.44
2018-02-12T15:59:49.251Z,5.42
2018-02-12T16:02:16.289Z,5.31
2018-02-12T16:04:43.306Z,5.27
2018-02-12T16:07:10.330Z,5.25
2018-02-12T16:09:37.481Z,5.38
2018-02-12T16:12:04.558Z,7.09
2018-02-12T16:14:31.600Z,9.43
2018-02-12T16:16:58.677Z,8.94
2018-02-12T16:19:25.715Z,7.42
2018-02-12T16:21:52.777Z,6.61
2018-02-12T16:24:19.883Z,5.87
2018-02-12T16:26:46.886Z,5.43
2018-02-12T16:29:13.927Z,5.16
2018-02-12T16:31:40.921Z,5.09
2018-02-12T16:34:07.971Z,4.92
2018-02-12T16:36:34.990Z,4.81
2018-02-12T16:39:02.009Z,4.68
2018-02-12T16:41:29.016Z,4.55
2018-02-12T16:43:56.015Z,4.51
2018-02-12T16:46:22.988Z,4.40
2018-02-12T16:48:50.039Z,4.35
2018-02-12T16:51:17.098Z,4.35
2018-02-12T16:53:44.142Z,4.31
2018-02-12T16:56:11.123Z,4.22
2018-02-12T16:58:38.227Z,4.20
2018-02-12T17:01:05.303Z,4.12
2018-02-12T17:03:32.364Z,4.07
2018-02-12T17:05:59.402Z,4.03
2018-02-12T17:08:26.479Z,4.01
2018-02-12T17:10:53.498Z,3.97
2018-02-12T17:13:20.580Z,3.96
2018-02-12T17:15:47.636Z,3.91
2018-02-12T17:18:14.681Z,3.85
2018-02-12T17:20:41.864Z,3.86
2018-02-12T17:23:09.029Z,3.83
2018-02-12T17:25:36.092Z,3.86
2018-02-12T17:28:03.268Z,3.82
2018-02-12T17:30:30.526Z,3.79
2018-02-12T17:32:57.588Z,3.82
2018-02-12T17:35:24.595Z,3.79
2018-02-12T17:37:51.611Z,3.72
2018-02-12T17:40:18.637Z,3.68
2018-02-12T17:42:45.743Z,3.65
2018-02-12T17:45:12.746Z,3.62
2018-02-12T17:47:39.779Z,3.59
2018-02-12T17:50:07.261Z,3.52
2018-02-12T17:52:34.503Z,3.41
2018-02-12T17:55:01.611Z,3.34
2018-02-12T17:57:28.629Z,3.32
2018-02-12T17:59:55.711Z,3.27
2018-02-12T18:02:22.903Z,3.24
2018-02-12T18:04:49.914Z,3.22
2018-02-12T18:07:16.995Z,3.20
2018-02-12T18:09:44.045Z,3.19
2018-02-12T18:12:11.098Z,3.19
2018-02-12T18:14:38.190Z,3.15
2018-02-12T18:17:05.263Z,3.12
2018-02-12T18:19:32.266Z,3.10
2018-02-12T18:21:59.279Z,3.07
2018-02-12T18:24:26.383Z,3.04
2018-02-12T18:26:53.412Z,3.07
2018-02-12T18:29:20.540Z,3.04
2018-02-12T18:31:47.616Z,3.02
2018-02-12T18:34:14.652Z,2.98
2018-02-12T18:36:41.719Z,2.92
2018-02-12T18:39:08.782Z,2.93
2018-02-12T18:41:35.833Z,2.95
2018-02-12T18:44:02.880Z,2.94
2018-02-12T18:46:29.980Z,2.97
2018-02-12T18:48:57.022Z,2.94
2018-02-12T18:51:24.037Z,2.89
2018-02-12T18:53:51.066Z,2.82
2018-02-12T18:56:18.094Z,2.83
2018-02-12T18:58:45.040Z,2.82
2018-02-12T19:01:12.124Z,2.73
2018-02-12T19:03:39.132Z,2.75
2018-02-12T19:06:06.170Z,2.80
2018-02-12T19:08:33.253Z,2.78
2018-02-12T19:11:00.272Z,2.71
2018-02-12T19:13:27.492Z,2.68
2018-02-12T19:15:54.575Z,2.69
2018-02-12T19:18:21.630Z,2.72
2018-02-12T19:20:48.842Z,2.66
2018-02-12T19:23:15.909Z,2.67
2018-02-12T19:25:42.915Z,2.66
2018-02-12T19:28:09.926Z,2.66
2018-02-12T19:30:36.949Z,2.66
2018-02-12T19:33:03.989Z,2.68
2018-02-12T19:35:31.038Z,2.67
2018-02-12T19:37:58.066Z,2.58
2018-02-12T19:40:25.067Z,2.57
2018-02-12T19:42:52.118Z,2.59
2018-02-12T19:45:19.125Z,2.59
2018-02-12T19:47:46.130Z,2.66
2018-02-12T19:50:13.170Z,2.73
2018-02-12T19:52:40.171Z,2.82
2018-02-12T19:55:07.246Z,2.90
2018-02-12T19:57:34.275Z,2.94
2018-02-12T20:00:01.315Z,2.91
2018-02-12T20:02:28.332Z,2.82
2018-02-12T20:04:55.391Z,2.70
2018-02-12T20:07:22.420Z,2.68
2018-02-12T20:09:49.401Z,2.71
2018-02-12T20:12:16.397Z,2.72
2018-02-12T20:14:43.427Z,2.72
2018-02-12T20:17:10.458Z,2.68
2018-02-12T20:19:37.501Z,2.73
2018-02-12T20:22:04.450Z,2.80
2018-02-12T20:24:31.525Z,2.80
2018-02-12T20:26:58.572Z,2.81
2018-02-12T20:29:25.617Z,2.81
2018-02-12T20:31:52.669Z,2.80
2018-02-12T20:34:19.678Z,2.77
2018-02-12T20:36:46.727Z,2.68
2018-02-12T20:39:16.710Z,2.67
2018-02-12T20:41:43.712Z,2.73
2018-02-12T20:44:11.078Z,2.74
2018-02-12T20:46:38.079Z,2.75
2018-02-12T20:49:05.099Z,2.75
2018-02-12T20:51:32.133Z,2.75
2018-02-12T20:53:59.201Z,2.67
2018-02-12T20:56:26.205Z,2.64
2018-02-12T20:58:53.263Z,2.64
2018-02-12T21:01:20.324Z,2.65
2018-02-12T21:03:47.388Z,2.60
2018-02-12T21:06:14.357Z,2.58
2018-02-12T21:08:41.389Z,2.58
2018-02-12T21:11:08.457Z,2.54
2018-02-12T21:13:35.499Z,2.56
2018-02-12T21:16:02.527Z,2.58
2018-02-12T21:18:29.565Z,2.49
2018-02-12T21:20:56.609Z,2.42
2018-02-12T21:23:23.567Z,2.43
2018-02-12T21:25:50.569Z,2.42
2018-02-12T21:28:17.580Z,2.31
2018-02-12T21:30:44.592Z,2.26
2018-02-12T21:33:11.597Z,2.21
2018-02-12T21:35:38.670Z,2.22
2018-02-12T21:38:05.713Z,2.21
2018-02-12T21:40:32.835Z,2.25
2018-02-12T21:42:59.795Z,2.25
2018-02-12T21:45:26.801Z,2.19
2018-02-12T21:47:53.931Z,2.14
2018-02-12T21:50:20.972Z,2.13
2018-02-12T21:52:48.030Z,2.07
2018-02-12T21:55:15.070Z,2.04
2018-02-12T21:57:42.066Z,1.98
2018-02-12T22:00:09.494Z,1.93
2018-02-12T22:02:36.568Z,1.89
2018-02-12T22:05:03.618Z,1.83
2018-02-12T22:07:30.675Z,1.80
2018-02-12T22:09:57.716Z,1.82
2018-02-12T22:12:24.767Z,1.80
2018-02-12T22:14:51.763Z,1.78
2018-02-12T22:17:18.761Z,1.80
2018-02-12T22:19:45.711Z,1.76
2018-02-12T22:22:12.736Z,1.72
2018-02-12T22:24:39.742Z,1.72
2018-02-12T22:27:06.827Z,1.72
2018-02-12T22:29:33.850Z,1.67
2018-02-12T22:32:00.894Z,1.68
2018-02-12T22:34:27.954Z,1.68
2018-02-12T22:36:55.015Z,1.64
2018-02-12T22:39:22.065Z,1.67
2018-02-12T22:41:49.033Z,1.66
2018-02-12T22:44:16.032Z,1.60
2018-02-12T22:46:43.041Z,1.56
2018-02-12T22:49:10.103Z,1.59
2018-02-12T22:51:37.304Z,1.59
2018-02-12T22:54:04.339Z,1.56
2018-02-12T22:56:31.371Z,1.52
2018-02-12T22:58:58.541Z,1.51
2018-02-12T23:01:25.610Z,1.51
2018-02-12T23:03:52.661Z,1.47
2018-02-12T23:06:19.693Z,1.46
2018-02-12T23:08:46.991Z,1.45
2018-02-12T23:11:14.001Z,1.43
2018-02-12T23:13:41.029Z,1.42
2018-02-12T23:16:08.100Z,1.43
2018-02-12T23:18:36.054Z,1.48
2018-02-12T23:21:03.165Z,1.48
2018-02-12T23:23:30.369Z,1.48
2018-02-12T23:25:57.420Z,1.44
2018-02-12T23:28:24.498Z,1.44
2018-02-12T23:30:51.562Z,1.39
2018-02-12T23:33:18.623Z,1.43
2018-02-12T23:35:45.578Z,1.43
2018-02-12T23:38:12.645Z,1.38
2018-02-12T23:40:39.607Z,1.36
2018-02-12T23:43:06.625Z,1.40
2018-02-12T23:45:33.650Z,1.45
2018-02-12T23:48:00.678Z,1.52
2018-02-12T23:50:27.696Z,1.54
2018-02-12T23:52:54.713Z,1.50
2018-02-12T23:55:22.146Z,1.48
2018-02-12T23:57:49.202Z,1.46
